sensor_id;sensor_type;location;lat;lon;timestamp;P1;durP1;ratioP1;P2;durP2;ratioP2
15498;SDS011;7851;52.260;6.030;2023-07-13T00:03:48;3.3;;;1.7;;
15498;SDS011;7851;52.260;6.030;2023-07-13T00:03:48;6;;;2.4;;
15498;SDS011;7851;52.260;6.030;2023-07-13T00:03:48;5;;;2.3;;
15498;SDS011;7851;52.260;6.030;2023-07-13T00:04:28;7.3;;;2.6;;
15498;SDS011;7851;52.260;6.030;2023-07-13T00:05:29;5.3;;;2.4;;
15498;SDS011;7851;52.260;6.030;2023-07-13T00:06:28;4;;;2.1;;
15498;SDS011;7851;52.260;6.030;2023-07-13T00:07:28;5.8;;;2.3;;
15498;SDS011;7851;52.260;6.030;2023-07-13T00:08:30;5.3;;;2.5;;
15498;SDS011;7851;52.260;6.030;2023-07-13T00:09:29;5;;;2.1;;
15498;SDS011;7851;52.260;6.030;2023-07-13T00:10:28;5;;;2.3;;
15498;SDS011;7851;52.260;6.030;2023-07-13T00:11:28;8.4;;;2.4;;
15498;SDS011;7851;52.260;6.030;2023-07-13T00:12:30;5.1;;;2.3;;
15498;SDS011;7851;52.260;6.030;2023-07-13T00:13:29;7;;;2.4;;
15498;SDS011;7851;52.260;6.030;2023-07-13T00:14:29;3.4;;;2.3;;
15498;SDS011;7851;52.260;6.030;2023-07-13T00:15:28;5.2;;;2.6;;
15498;SDS011;7851;52.260;6.030;2023-07-13T00:16:28;5.3;;;2.2;;
15498;SDS011;7851;52.260;6.030;2023-07-13T00:17:28;4.6;;;2.2;;
15498;SDS011;7851;52.260;6.030;2023-07-13T00:18:28;5.4;;;2.3;;
15498;SDS011;7851;52.260;6.030;2023-07-13T00:19:28;4.6;;;2.7;;
15498;SDS011;7851;52.260;6.030;2023-07-13T00:20:28;6;;;2.3;;
15498;SDS011;7851;52.260;6.030;2023-07-13T00:21:28;13.3;;;2.4;;
15498;SDS011;7851;52.260;6.030;2023-07-13T00:22:28;3.9;;;2.2;;
15498;SDS011;7851;52.260;6.030;2023-07-13T00:23:28;3.9;;;2.1;;
15498;SDS011;7851;52.260;6.030;2023-07-13T00:24:28;4.4;;;2.4;;
15498;SDS011;7851;52.260;6.030;2023-07-13T00:25:28;3.4;;;2.2;;
15498;SDS011;7851;52.260;6.030;2023-07-13T00:26:28;2.9;;;2.2;;
15498;SDS011;7851;52.260;6.030;2023-07-13T00:27:28;5.1;;;2.3;;
15498;SDS011;7851;52.260;6.030;2023-07-13T00:28:28;3;;;2.1;;
15498;SDS011;7851;52.260;6.030;2023-07-13T00:29:28;9.3;;;2.7;;
15498;SDS011;7851;52.260;6.030;2023-07-13T00:30:28;5.6;;;2.1;;
15498;SDS011;7851;52.260;6.030;2023-07-13T00:31:28;8.1;;;2.3;;
15498;SDS011;7851;52.260;6.030;2023-07-13T00:32:28;4.2;;;2.3;;
15498;SDS011;7851;52.260;6.030;2023-07-13T00:33:28;6.3;;;2.3;;
15498;SDS011;7851;52.260;6.030;2023-07-13T00:34:28;2.8;;;2.2;;
15498;SDS011;7851;52.260;6.030;2023-07-13T00:35:29;8.1;;;2.8;;
15498;SDS011;7851;52.260;6.030;2023-07-13T00:36:29;6.7;;;2.3;;
15498;SDS011;7851;52.260;6.030;2023-07-13T00:37:28;7.6;;;2.7;;
15498;SDS011;7851;52.260;6.030;2023-07-13T00:38:28;2.9;;;2.1;;
15498;SDS011;7851;52.260;6.030;2023-07-13T00:39:28;2.6;;;2.2;;
15498;SDS011;7851;52.260;6.030;2023-07-13T00:40:28;5;;;2.5;;
15498;SDS011;7851;52.260;6.030;2023-07-13T00:41:29;3.4;;;2.1;;
15498;SDS011;7851;52.260;6.030;2023-07-13T00:42:28;4;;;2.3;;
15498;SDS011;7851;52.260;6.030;2023-07-13T00:43:29;2.9;;;2;;
15498;SDS011;7851;52.260;6.030;2023-07-13T00:44:28;5;;;2.3;;
15498;SDS011;7851;52.260;6.030;2023-07-13T00:46:29;2.8;;;2.1;;
15498;SDS011;7851;52.260;6.030;2023-07-13T00:47:28;7.3;;;2.1;;
15498;SDS011;7851;52.260;6.030;2023-07-13T00:48:29;5.3;;;2.1;;
15498;SDS011;7851;52.260;6.030;2023-07-13T00:49:29;6.2;;;2.1;;
15498;SDS011;7851;52.260;6.030;2023-07-13T00:50:28;2.1;;;1.9;;
15498;SDS011;7851;52.260;6.030;2023-07-13T00:51:30;3.4;;;2.2;;
15498;SDS011;7851;52.260;6.030;2023-07-13T00:52:28;3;;;2.1;;
15498;SDS011;7851;52.260;6.030;2023-07-13T00:53:29;3.4;;;2.4;;
15498;SDS011;7851;52.260;6.030;2023-07-13T00:54:29;5.7;;;2.3;;
15498;SDS011;7851;52.260;6.030;2023-07-13T00:55:28;3.3;;;2.1;;
15498;SDS011;7851;52.260;6.030;2023-07-13T00:56:28;3.4;;;2.2;;
15498;SDS011;7851;52.260;6.030;2023-07-13T00:57:28;6.2;;;2.3;;
15498;SDS011;7851;52.260;6.030;2023-07-13T00:58:28;6.6;;;2.4;;
15498;SDS011;7851;52.260;6.030;2023-07-13T00:59:28;5.1;;;2.3;;
15498;SDS011;7851;52.260;6.030;2023-07-13T01:00:28;3.4;;;2.3;;
15498;SDS011;7851;52.260;6.030;2023-07-13T01:01:28;5.2;;;2.3;;
15498;SDS011;7851;52.260;6.030;2023-07-13T01:02:28;3.1;;;2.3;;
15498;SDS011;7851;52.260;6.030;2023-07-13T01:03:28;7.4;;;2.2;;
15498;SDS011;7851;52.260;6.030;2023-07-13T01:04:29;3.4;;;1.9;;
15498;SDS011;7851;52.260;6.030;2023-07-13T01:05:28;5.9;;;2.5;;
15498;SDS011;7851;52.260;6.030;2023-07-13T01:06:28;5.1;;;2.4;;
15498;SDS011;7851;52.260;6.030;2023-07-13T01:07:28;5.9;;;2.3;;
15498;SDS011;7851;52.260;6.030;2023-07-13T01:08:28;4;;;2.3;;
15498;SDS011;7851;52.260;6.030;2023-07-13T01:09:28;2.5;;;2.2;;
15498;SDS011;7851;52.260;6.030;2023-07-13T01:10:29;2.9;;;2;;
15498;SDS011;7851;52.260;6.030;2023-07-13T01:11:28;9.3;;;2.2;;
15498;SDS011;7851;52.260;6.030;2023-07-13T01:12:29;3.9;;;2;;
15498;SDS011;7851;52.260;6.030;2023-07-13T01:13:28;3.3;;;2.2;;
15498;SDS011;7851;52.260;6.030;2023-07-13T01:14:29;7.3;;;2.2;;
15498;SDS011;7851;52.260;6.030;2023-07-13T01:15:33;3.6;;;2;;
15498;SDS011;7851;52.260;6.030;2023-07-13T01:16:30;4.2;;;2.3;;
15498;SDS011;7851;52.260;6.030;2023-07-13T01:17:28;2.2;;;2;;
15498;SDS011;7851;52.260;6.030;2023-07-13T01:18:28;2.6;;;2;;
15498;SDS011;7851;52.260;6.030;2023-07-13T01:19:31;11;;;2.4;;
15498;SDS011;7851;52.260;6.030;2023-07-13T01:20:28;3.3;;;2.4;;
15498;SDS011;7851;52.260;6.030;2023-07-13T01:21:32;3.7;;;2.3;;
15498;SDS011;7851;52.260;6.030;2023-07-13T01:22:28;2.7;;;2;;
15498;SDS011;7851;52.260;6.030;2023-07-13T01:23:29;5.1;;;1.8;;
15498;SDS011;7851;52.260;6.030;2023-07-13T01:24:28;4.2;;;2.4;;
15498;SDS011;7851;52.260;6.030;2023-07-13T01:25:28;2.4;;;2.1;;
15498;SDS011;7851;52.260;6.030;2023-07-13T01:26:28;3.5;;;2.2;;
15498;SDS011;7851;52.260;6.030;2023-07-13T01:27:28;3.1;;;1.9;;
15498;SDS011;7851;52.260;6.030;2023-07-13T01:28:28;4.5;;;2;;
15498;SDS011;7851;52.260;6.030;2023-07-13T01:29:29;4.1;;;2.2;;
15498;SDS011;7851;52.260;6.030;2023-07-13T01:30:28;3.4;;;2.2;;
15498;SDS011;7851;52.260;6.030;2023-07-13T01:31:28;2;;;1.8;;
15498;SDS011;7851;52.260;6.030;2023-07-13T01:32:28;6.8;;;2.2;;
15498;SDS011;7851;52.260;6.030;2023-07-13T01:33:28;2.6;;;2;;
15498;SDS011;7851;52.260;6.030;2023-07-13T01:34:28;2.9;;;1.9;;
15498;SDS011;7851;52.260;6.030;2023-07-13T01:35:28;3.7;;;2;;
15498;SDS011;7851;52.260;6.030;2023-07-13T01:36:28;2.5;;;2.1;;
15498;SDS011;7851;52.260;6.030;2023-07-13T01:37:28;2.6;;;2.3;;
15498;SDS011;7851;52.260;6.030;2023-07-13T01:38:28;3.3;;;2.4;;
15498;SDS011;7851;52.260;6.030;2023-07-13T01:39:28;3.6;;;2;;
15498;SDS011;7851;52.260;6.030;2023-07-13T01:40:29;4.4;;;2.5;;
15498;SDS011;7851;52.260;6.030;2023-07-13T01:41:28;3.7;;;2.4;;
15498;SDS011;7851;52.260;6.030;2023-07-13T01:42:28;4.8;;;2.6;;
15498;SDS011;7851;52.260;6.030;2023-07-13T01:43:29;3.1;;;2;;
15498;SDS011;7851;52.260;6.030;2023-07-13T01:44:28;2.4;;;2.1;;
15498;SDS011;7851;52.260;6.030;2023-07-13T01:45:28;2.8;;;2.2;;
15498;SDS011;7851;52.260;6.030;2023-07-13T01:46:28;2.5;;;2;;
15498;SDS011;7851;52.260;6.030;2023-07-13T01:47:28;3.2;;;2.4;;
15498;SDS011;7851;52.260;6.030;2023-07-13T01:48:28;5.8;;;2.1;;
15498;SDS011;7851;52.260;6.030;2023-07-13T01:49:28;2.1;;;1.9;;
15498;SDS011;7851;52.260;6.030;2023-07-13T01:50:28;10.6;;;2;;
15498;SDS011;7851;52.260;6.030;2023-07-13T01:51:28;4.7;;;2.4;;
15498;SDS011;7851;52.260;6.030;2023-07-13T01:52:28;2.7;;;1.9;;
15498;SDS011;7851;52.260;6.030;2023-07-13T01:53:28;2.2;;;2;;
15498;SDS011;7851;52.260;6.030;2023-07-13T01:54:28;2.9;;;2;;
15498;SDS011;7851;52.260;6.030;2023-07-13T01:55:28;4.2;;;2;;
15498;SDS011;7851;52.260;6.030;2023-07-13T01:56:28;2.9;;;2.2;;
15498;SDS011;7851;52.260;6.030;2023-07-13T01:57:28;3.1;;;2.1;;
15498;SDS011;7851;52.260;6.030;2023-07-13T01:58:28;3.4;;;2.1;;
15498;SDS011;7851;52.260;6.030;2023-07-13T01:59:28;3.4;;;2.2;;
15498;SDS011;7851;52.260;6.030;2023-07-13T02:00:28;3.2;;;1.9;;
15498;SDS011;7851;52.260;6.030;2023-07-13T02:01:28;2.8;;;1.8;;
15498;SDS011;7851;52.260;6.030;2023-07-13T02:02:28;3.5;;;2.2;;
15498;SDS011;7851;52.260;6.030;2023-07-13T02:03:28;2.3;;;1.9;;
15498;SDS011;7851;52.260;6.030;2023-07-13T02:04:28;6.6;;;2.5;;
15498;SDS011;7851;52.260;6.030;2023-07-13T02:05:28;5.9;;;2.4;;
15498;SDS011;7851;52.260;6.030;2023-07-13T02:06:28;2.3;;;2;;
15498;SDS011;7851;52.260;6.030;2023-07-13T02:07:28;5.3;;;2.4;;
15498;SDS011;7851;52.260;6.030;2023-07-13T02:08:28;5.4;;;2;;
15498;SDS011;7851;52.260;6.030;2023-07-13T02:09:29;3.4;;;1.7;;
15498;SDS011;7851;52.260;6.030;2023-07-13T02:10:28;2.5;;;1.8;;
15498;SDS011;7851;52.260;6.030;2023-07-13T02:11:28;4.8;;;2.1;;
15498;SDS011;7851;52.260;6.030;2023-07-13T02:12:28;18.8;;;2.3;;
15498;SDS011;7851;52.260;6.030;2023-07-13T02:13:28;8.5;;;2.2;;
15498;SDS011;7851;52.260;6.030;2023-07-13T02:14:28;3.8;;;2.4;;
15498;SDS011;7851;52.260;6.030;2023-07-13T02:15:28;5.3;;;2.2;;
15498;SDS011;7851;52.260;6.030;2023-07-13T02:16:29;2.9;;;2.1;;
15498;SDS011;7851;52.260;6.030;2023-07-13T02:17:28;4.1;;;1.9;;
15498;SDS011;7851;52.260;6.030;2023-07-13T02:18:28;6.8;;;2.6;;
15498;SDS011;7851;52.260;6.030;2023-07-13T02:19:28;3.7;;;2;;
15498;SDS011;7851;52.260;6.030;2023-07-13T02:20:28;4.9;;;2.2;;
15498;SDS011;7851;52.260;6.030;2023-07-13T02:21:28;3.6;;;2.4;;
15498;SDS011;7851;52.260;6.030;2023-07-13T02:22:28;2.7;;;2.2;;
15498;SDS011;7851;52.260;6.030;2023-07-13T02:23:28;7.4;;;2.2;;
15498;SDS011;7851;52.260;6.030;2023-07-13T02:24:28;2.5;;;2.2;;
15498;SDS011;7851;52.260;6.030;2023-07-13T02:25:28;5.1;;;2.1;;
15498;SDS011;7851;52.260;6.030;2023-07-13T02:26:28;3.4;;;2.1;;
15498;SDS011;7851;52.260;6.030;2023-07-13T02:27:28;2.3;;;2.1;;
15498;SDS011;7851;52.260;6.030;2023-07-13T02:28:28;3.3;;;2.3;;
15498;SDS011;7851;52.260;6.030;2023-07-13T02:29:28;5.2;;;2.4;;
15498;SDS011;7851;52.260;6.030;2023-07-13T02:30:28;7.6;;;2.4;;
15498;SDS011;7851;52.260;6.030;2023-07-13T02:31:28;6.1;;;2.2;;
15498;SDS011;7851;52.260;6.030;2023-07-13T02:32:28;3.5;;;2;;
15498;SDS011;7851;52.260;6.030;2023-07-13T02:33:28;2.6;;;2;;
15498;SDS011;7851;52.260;6.030;2023-07-13T02:34:28;5.1;;;2.1;;
15498;SDS011;7851;52.260;6.030;2023-07-13T02:35:28;2.2;;;1.9;;
15498;SDS011;7851;52.260;6.030;2023-07-13T02:36:28;5.9;;;1.9;;
15498;SDS011;7851;52.260;6.030;2023-07-13T02:37:28;3.4;;;2.1;;
15498;SDS011;7851;52.260;6.030;2023-07-13T02:38:28;3;;;2.1;;
15498;SDS011;7851;52.260;6.030;2023-07-13T02:39:28;7.1;;;2.4;;
15498;SDS011;7851;52.260;6.030;2023-07-13T02:40:28;3.6;;;2.3;;
15498;SDS011;7851;52.260;6.030;2023-07-13T02:41:28;3.1;;;2;;
15498;SDS011;7851;52.260;6.030;2023-07-13T02:42:28;4.4;;;1.9;;
15498;SDS011;7851;52.260;6.030;2023-07-13T02:43:28;6;;;2.3;;
15498;SDS011;7851;52.260;6.030;2023-07-13T02:44:29;7.7;;;1.8;;
15498;SDS011;7851;52.260;6.030;2023-07-13T02:45:28;3.1;;;2.3;;
15498;SDS011;7851;52.260;6.030;2023-07-13T02:46:28;5.8;;;2.5;;
15498;SDS011;7851;52.260;6.030;2023-07-13T02:47:28;3.5;;;1.8;;
15498;SDS011;7851;52.260;6.030;2023-07-13T02:48:28;3.8;;;2.1;;
15498;SDS011;7851;52.260;6.030;2023-07-13T02:49:28;2.4;;;2.2;;
15498;SDS011;7851;52.260;6.030;2023-07-13T02:50:28;2;;;1.8;;
15498;SDS011;7851;52.260;6.030;2023-07-13T02:51:28;4.2;;;1.9;;
15498;SDS011;7851;52.260;6.030;2023-07-13T02:52:28;2.7;;;2.2;;
15498;SDS011;7851;52.260;6.030;2023-07-13T02:53:29;8.8;;;2.3;;
15498;SDS011;7851;52.260;6.030;2023-07-13T02:54:28;5.6;;;2.3;;
15498;SDS011;7851;52.260;6.030;2023-07-13T02:55:28;4.4;;;2.1;;
15498;SDS011;7851;52.260;6.030;2023-07-13T02:56:29;4.4;;;2.1;;
15498;SDS011;7851;52.260;6.030;2023-07-13T02:57:28;4;;;1.9;;
15498;SDS011;7851;52.260;6.030;2023-07-13T02:58:28;3.7;;;2;;
15498;SDS011;7851;52.260;6.030;2023-07-13T02:59:28;5.4;;;2.2;;
15498;SDS011;7851;52.260;6.030;2023-07-13T03:00:28;2.2;;;2;;
15498;SDS011;7851;52.260;6.030;2023-07-13T03:01:28;4.5;;;2.3;;
15498;SDS011;7851;52.260;6.030;2023-07-13T03:02:28;4;;;1.9;;
15498;SDS011;7851;52.260;6.030;2023-07-13T03:03:28;6.2;;;2.2;;
15498;SDS011;7851;52.260;6.030;2023-07-13T03:04:28;6.3;;;2.2;;
15498;SDS011;7851;52.260;6.030;2023-07-13T03:05:28;4.5;;;2.3;;
15498;SDS011;7851;52.260;6.030;2023-07-13T03:06:30;4.3;;;2.3;;
15498;SDS011;7851;52.260;6.030;2023-07-13T03:07:29;4.7;;;2.1;;
15498;SDS011;7851;52.260;6.030;2023-07-13T03:08:28;5.3;;;2.2;;
15498;SDS011;7851;52.260;6.030;2023-07-13T03:09:28;7.8;;;2.5;;
15498;SDS011;7851;52.260;6.030;2023-07-13T03:10:28;3.8;;;2.4;;
15498;SDS011;7851;52.260;6.030;2023-07-13T03:11:28;3.8;;;2.2;;
15498;SDS011;7851;52.260;6.030;2023-07-13T03:12:28;5.7;;;2.4;;
15498;SDS011;7851;52.260;6.030;2023-07-13T03:13:28;3;;;2.5;;
15498;SDS011;7851;52.260;6.030;2023-07-13T03:14:28;4.2;;;2.4;;
15498;SDS011;7851;52.260;6.030;2023-07-13T03:15:28;3.4;;;1.9;;
15498;SDS011;7851;52.260;6.030;2023-07-13T03:16:28;5.7;;;2.5;;
15498;SDS011;7851;52.260;6.030;2023-07-13T03:17:28;3.8;;;2;;
15498;SDS011;7851;52.260;6.030;2023-07-13T03:18:28;4.3;;;2.3;;
15498;SDS011;7851;52.260;6.030;2023-07-13T03:19:28;2.6;;;2.2;;
15498;SDS011;7851;52.260;6.030;2023-07-13T03:20:28;7.1;;;2.5;;
15498;SDS011;7851;52.260;6.030;2023-07-13T03:21:28;8.4;;;2.3;;
15498;SDS011;7851;52.260;6.030;2023-07-13T03:22:28;4;;;2.3;;
15498;SDS011;7851;52.260;6.030;2023-07-13T03:23:28;2.8;;;2;;
15498;SDS011;7851;52.260;6.030;2023-07-13T03:24:28;4.4;;;2.5;;
15498;SDS011;7851;52.260;6.030;2023-07-13T03:25:28;6.6;;;2.3;;
15498;SDS011;7851;52.260;6.030;2023-07-13T03:26:28;3.9;;;2.2;;
15498;SDS011;7851;52.260;6.030;2023-07-13T03:27:28;4.8;;;2.5;;
15498;SDS011;7851;52.260;6.030;2023-07-13T03:28:28;5.2;;;2.4;;
15498;SDS011;7851;52.260;6.030;2023-07-13T03:29:28;2.9;;;2.1;;
15498;SDS011;7851;52.260;6.030;2023-07-13T03:30:28;6.1;;;1.9;;
15498;SDS011;7851;52.260;6.030;2023-07-13T03:31:29;5.1;;;2.4;;
15498;SDS011;7851;52.260;6.030;2023-07-13T03:32:28;4.5;;;2.5;;
15498;SDS011;7851;52.260;6.030;2023-07-13T03:33:28;3.8;;;2.3;;
15498;SDS011;7851;52.260;6.030;2023-07-13T03:34:28;2.9;;;2.1;;
15498;SDS011;7851;52.260;6.030;2023-07-13T03:35:28;4.6;;;2.7;;
15498;SDS011;7851;52.260;6.030;2023-07-13T03:36:29;4.7;;;2.3;;
15498;SDS011;7851;52.260;6.030;2023-07-13T03:37:28;6.7;;;2.6;;
15498;SDS011;7851;52.260;6.030;2023-07-13T03:38:28;4.4;;;2.6;;
15498;SDS011;7851;52.260;6.030;2023-07-13T03:39:28;3.1;;;2.5;;
15498;SDS011;7851;52.260;6.030;2023-07-13T03:40:28;3.4;;;2.3;;
15498;SDS011;7851;52.260;6.030;2023-07-13T03:41:28;4.6;;;2.7;;
15498;SDS011;7851;52.260;6.030;2023-07-13T03:42:28;5;;;2.4;;
15498;SDS011;7851;52.260;6.030;2023-07-13T03:43:28;3.7;;;2.4;;
15498;SDS011;7851;52.260;6.030;2023-07-13T03:44:28;6.8;;;3.1;;
15498;SDS011;7851;52.260;6.030;2023-07-13T03:45:28;3.7;;;2.3;;
15498;SDS011;7851;52.260;6.030;2023-07-13T03:46:28;3.4;;;2.5;;
15498;SDS011;7851;52.260;6.030;2023-07-13T03:47:28;7.1;;;3;;
15498;SDS011;7851;52.260;6.030;2023-07-13T03:48:28;4.3;;;2.7;;
15498;SDS011;7851;52.260;6.030;2023-07-13T03:49:28;6;;;2.7;;
15498;SDS011;7851;52.260;6.030;2023-07-13T03:50:28;2.4;;;2;;
15498;SDS011;7851;52.260;6.030;2023-07-13T03:51:28;3.4;;;2.5;;
15498;SDS011;7851;52.260;6.030;2023-07-13T03:52:28;9.4;;;2.9;;
15498;SDS011;7851;52.260;6.030;2023-07-13T03:53:28;5.4;;;2.8;;
15498;SDS011;7851;52.260;6.030;2023-07-13T03:54:28;9.9;;;3.2;;
15498;SDS011;7851;52.260;6.030;2023-07-13T03:55:28;2.7;;;2.2;;
15498;SDS011;7851;52.260;6.030;2023-07-13T03:56:29;5.2;;;2.6;;
15498;SDS011;7851;52.260;6.030;2023-07-13T03:57:28;9;;;2.8;;
15498;SDS011;7851;52.260;6.030;2023-07-13T03:58:30;10.3;;;3;;
15498;SDS011;7851;52.260;6.030;2023-07-13T03:59:28;3.6;;;2.1;;
15498;SDS011;7851;52.260;6.030;2023-07-13T04:00:28;4.6;;;2.6;;
15498;SDS011;7851;52.260;6.030;2023-07-13T04:01:28;4.8;;;2.3;;
15498;SDS011;7851;52.260;6.030;2023-07-13T04:02:28;7.2;;;2.7;;
15498;SDS011;7851;52.260;6.030;2023-07-13T04:03:29;5.3;;;2.8;;
15498;SDS011;7851;52.260;6.030;2023-07-13T04:04:28;5.2;;;3;;
15498;SDS011;7851;52.260;6.030;2023-07-13T04:05:28;3;;;2.4;;
15498;SDS011;7851;52.260;6.030;2023-07-13T04:06:29;7.2;;;3.1;;
15498;SDS011;7851;52.260;6.030;2023-07-13T04:07:28;10.9;;;3;;
15498;SDS011;7851;52.260;6.030;2023-07-13T04:08:29;5.4;;;2.6;;
15498;SDS011;7851;52.260;6.030;2023-07-13T04:09:28;4.3;;;2.6;;
15498;SDS011;7851;52.260;6.030;2023-07-13T04:10:28;6.5;;;2.7;;
15498;SDS011;7851;52.260;6.030;2023-07-13T04:11:29;8.6;;;2.8;;
15498;SDS011;7851;52.260;6.030;2023-07-13T04:12:28;6;;;2.7;;
15498;SDS011;7851;52.260;6.030;2023-07-13T04:13:28;4.1;;;2.6;;
15498;SDS011;7851;52.260;6.030;2023-07-13T04:14:28;5.8;;;3.1;;
15498;SDS011;7851;52.260;6.030;2023-07-13T04:15:29;4;;;2.7;;
15498;SDS011;7851;52.260;6.030;2023-07-13T04:16:28;4.5;;;2.7;;
15498;SDS011;7851;52.260;6.030;2023-07-13T04:17:28;6.7;;;2.6;;
15498;SDS011;7851;52.260;6.030;2023-07-13T04:18:28;4.5;;;2.7;;
15498;SDS011;7851;52.260;6.030;2023-07-13T04:19:28;4.5;;;2.6;;
15498;SDS011;7851;52.260;6.030;2023-07-13T04:20:28;3.3;;;2.4;;
15498;SDS011;7851;52.260;6.030;2023-07-13T04:21:29;3.6;;;2.6;;
15498;SDS011;7851;52.260;6.030;2023-07-13T04:22:28;4.3;;;3;;
15498;SDS011;7851;52.260;6.030;2023-07-13T04:23:28;3.2;;;2.4;;
15498;SDS011;7851;52.260;6.030;2023-07-13T04:24:28;3;;;2.2;;
15498;SDS011;7851;52.260;6.030;2023-07-13T04:25:28;5.7;;;2.8;;
15498;SDS011;7851;52.260;6.030;2023-07-13T04:26:28;4.6;;;2.4;;
15498;SDS011;7851;52.260;6.030;2023-07-13T04:27:28;3.4;;;2.5;;
15498;SDS011;7851;52.260;6.030;2023-07-13T04:28:28;5.7;;;2.6;;
15498;SDS011;7851;52.260;6.030;2023-07-13T04:29:28;4.4;;;2.5;;
15498;SDS011;7851;52.260;6.030;2023-07-13T04:30:28;2.8;;;2.4;;
15498;SDS011;7851;52.260;6.030;2023-07-13T04:31:28;4;;;2.8;;
15498;SDS011;7851;52.260;6.030;2023-07-13T04:32:28;3.2;;;2.8;;
15498;SDS011;7851;52.260;6.030;2023-07-13T04:33:28;3.3;;;2.6;;
15498;SDS011;7851;52.260;6.030;2023-07-13T04:34:28;2.7;;;2.4;;
15498;SDS011;7851;52.260;6.030;2023-07-13T04:35:28;3.7;;;2.7;;
15498;SDS011;7851;52.260;6.030;2023-07-13T04:36:28;6.9;;;2.8;;
15498;SDS011;7851;52.260;6.030;2023-07-13T04:37:28;2.6;;;2.3;;
15498;SDS011;7851;52.260;6.030;2023-07-13T04:38:29;5.3;;;2.9;;
15498;SDS011;7851;52.260;6.030;2023-07-13T04:39:28;5.6;;;2.9;;
15498;SDS011;7851;52.260;6.030;2023-07-13T04:40:28;5.5;;;3.1;;
15498;SDS011;7851;52.260;6.030;2023-07-13T04:41:28;4.7;;;2.9;;
15498;SDS011;7851;52.260;6.030;2023-07-13T04:42:28;8.5;;;2.9;;
15498;SDS011;7851;52.260;6.030;2023-07-13T04:43:28;6.1;;;3.3;;
15498;SDS011;7851;52.260;6.030;2023-07-13T04:44:28;4.6;;;2.8;;
15498;SDS011;7851;52.260;6.030;2023-07-13T04:45:29;4.3;;;3.1;;
15498;SDS011;7851;52.260;6.030;2023-07-13T04:46:28;3.7;;;2.7;;
15498;SDS011;7851;52.260;6.030;2023-07-13T04:47:29;5;;;3.2;;
15498;SDS011;7851;52.260;6.030;2023-07-13T04:48:28;5.3;;;2.7;;
15498;SDS011;7851;52.260;6.030;2023-07-13T04:49:28;2.6;;;2.4;;
15498;SDS011;7851;52.260;6.030;2023-07-13T04:50:28;5.8;;;3.2;;
15498;SDS011;7851;52.260;6.030;2023-07-13T04:51:28;5.5;;;3;;
15498;SDS011;7851;52.260;6.030;2023-07-13T04:52:28;5.9;;;2.9;;
15498;SDS011;7851;52.260;6.030;2023-07-13T04:53:28;4.5;;;2.9;;
15498;SDS011;7851;52.260;6.030;2023-07-13T04:54:28;7;;;2.7;;
15498;SDS011;7851;52.260;6.030;2023-07-13T04:55:28;3.4;;;3.1;;
15498;SDS011;7851;52.260;6.030;2023-07-13T04:56:29;5.8;;;3.2;;
15498;SDS011;7851;52.260;6.030;2023-07-13T04:57:28;6.4;;;3.2;;
15498;SDS011;7851;52.260;6.030;2023-07-13T04:58:28;4;;;3.3;;
15498;SDS011;7851;52.260;6.030;2023-07-13T04:59:28;4.9;;;3.2;;
15498;SDS011;7851;52.260;6.030;2023-07-13T05:00:29;9;;;3.4;;
15498;SDS011;7851;52.260;6.030;2023-07-13T05:01:28;3.1;;;2.8;;
15498;SDS011;7851;52.260;6.030;2023-07-13T05:02:28;9;;;4;;
15498;SDS011;7851;52.260;6.030;2023-07-13T05:03:28;4;;;2.7;;
15498;SDS011;7851;52.260;6.030;2023-07-13T05:04:28;4.9;;;3.1;;
15498;SDS011;7851;52.260;6.030;2023-07-13T05:05:28;5.2;;;3.1;;
15498;SDS011;7851;52.260;6.030;2023-07-13T05:06:28;4.6;;;2.8;;
15498;SDS011;7851;52.260;6.030;2023-07-13T05:07:28;18.7;;;3.3;;
15498;SDS011;7851;52.260;6.030;2023-07-13T05:08:28;5.1;;;3.3;;
15498;SDS011;7851;52.260;6.030;2023-07-13T05:09:28;3.3;;;3;;
15498;SDS011;7851;52.260;6.030;2023-07-13T05:10:28;4.2;;;2.8;;
15498;SDS011;7851;52.260;6.030;2023-07-13T05:11:28;6.4;;;4;;
15498;SDS011;7851;52.260;6.030;2023-07-13T05:12:28;11.5;;;3.8;;
15498;SDS011;7851;52.260;6.030;2023-07-13T05:13:28;8.6;;;3.5;;
15498;SDS011;7851;52.260;6.030;2023-07-13T05:14:28;7.4;;;3.7;;
15498;SDS011;7851;52.260;6.030;2023-07-13T05:15:28;4.7;;;3;;
15498;SDS011;7851;52.260;6.030;2023-07-13T05:16:28;5.5;;;3.7;;
15498;SDS011;7851;52.260;6.030;2023-07-13T05:17:28;12.2;;;3.4;;
15498;SDS011;7851;52.260;6.030;2023-07-13T05:18:28;5.5;;;3.6;;
15498;SDS011;7851;52.260;6.030;2023-07-13T05:19:29;6.8;;;3.9;;
15498;SDS011;7851;52.260;6.030;2023-07-13T05:20:29;8.9;;;3.8;;
15498;SDS011;7851;52.260;6.030;2023-07-13T05:21:28;12.8;;;10.1;;
15498;SDS011;7851;52.260;6.030;2023-07-13T05:22:28;10.9;;;9.8;;
15498;SDS011;7851;52.260;6.030;2023-07-13T05:23:28;11.4;;;10.4;;
15498;SDS011;7851;52.260;6.030;2023-07-13T05:24:28;11.7;;;10.6;;
15498;SDS011;7851;52.260;6.030;2023-07-13T05:25:29;15.6;;;14.2;;
15498;SDS011;7851;52.260;6.030;2023-07-13T05:26:28;12.4;;;11.5;;
15498;SDS011;7851;52.260;6.030;2023-07-13T05:27:28;12.1;;;10.7;;
15498;SDS011;7851;52.260;6.030;2023-07-13T05:28:30;12.2;;;11.2;;
15498;SDS011;7851;52.260;6.030;2023-07-13T05:29:28;15.1;;;13.5;;
15498;SDS011;7851;52.260;6.030;2023-07-13T05:30:28;17.1;;;15.1;;
15498;SDS011;7851;52.260;6.030;2023-07-13T05:31:28;16.1;;;14.5;;
15498;SDS011;7851;52.260;6.030;2023-07-13T05:32:28;12.8;;;11.9;;
15498;SDS011;7851;52.260;6.030;2023-07-13T05:33:28;17.2;;;15.6;;
15498;SDS011;7851;52.260;6.030;2023-07-13T05:34:28;15.7;;;14.4;;
15498;SDS011;7851;52.260;6.030;2023-07-13T05:35:28;14.7;;;13.3;;
15498;SDS011;7851;52.260;6.030;2023-07-13T05:36:28;15.6;;;14.5;;
15498;SDS011;7851;52.260;6.030;2023-07-13T05:37:28;14.5;;;13.4;;
15498;SDS011;7851;52.260;6.030;2023-07-13T05:38:28;18.4;;;16.8;;
15498;SDS011;7851;52.260;6.030;2023-07-13T05:39:29;18.4;;;17;;
15498;SDS011;7851;52.260;6.030;2023-07-13T05:40:28;20.1;;;18;;
15498;SDS011;7851;52.260;6.030;2023-07-13T05:41:28;17.5;;;16.1;;
15498;SDS011;7851;52.260;6.030;2023-07-13T05:42:28;20.6;;;18.7;;
15498;SDS011;7851;52.260;6.030;2023-07-13T05:43:28;21;;;19.4;;
15498;SDS011;7851;52.260;6.030;2023-07-13T05:44:28;20.9;;;18.8;;
15498;SDS011;7851;52.260;6.030;2023-07-13T05:45:28;18.5;;;17;;
15498;SDS011;7851;52.260;6.030;2023-07-13T05:46:28;19.4;;;17.4;;
15498;SDS011;7851;52.260;6.030;2023-07-13T05:47:28;19.5;;;17.8;;
15498;SDS011;7851;52.260;6.030;2023-07-13T05:48:28;21.5;;;19.4;;
15498;SDS011;7851;52.260;6.030;2023-07-13T05:49:29;20.8;;;19;;
15498;SDS011;7851;52.260;6.030;2023-07-13T05:50:28;20.3;;;18.6;;
15498;SDS011;7851;52.260;6.030;2023-07-13T05:51:28;20.7;;;19;;
15498;SDS011;7851;52.260;6.030;2023-07-13T05:52:28;21.1;;;18.8;;
15498;SDS011;7851;52.260;6.030;2023-07-13T05:53:28;20;;;18.2;;
15498;SDS011;7851;52.260;6.030;2023-07-13T05:54:28;21.4;;;19.4;;
15498;SDS011;7851;52.260;6.030;2023-07-13T05:55:28;22.3;;;20.5;;
15498;SDS011;7851;52.260;6.030;2023-07-13T05:56:28;20.6;;;18.6;;
15498;SDS011;7851;52.260;6.030;2023-07-13T05:57:30;21.1;;;19.3;;
15498;SDS011;7851;52.260;6.030;2023-07-13T05:58:28;20.8;;;19.2;;
15498;SDS011;7851;52.260;6.030;2023-07-13T05:59:28;20.6;;;18.9;;
15498;SDS011;7851;52.260;6.030;2023-07-13T06:00:28;19.7;;;17.9;;
15498;SDS011;7851;52.260;6.030;2023-07-13T06:01:29;22;;;20.2;;
15498;SDS011;7851;52.260;6.030;2023-07-13T06:02:28;22.9;;;21.1;;
15498;SDS011;7851;52.260;6.030;2023-07-13T06:03:28;22.1;;;20.4;;
15498;SDS011;7851;52.260;6.030;2023-07-13T06:04:28;23.5;;;21.3;;
15498;SDS011;7851;52.260;6.030;2023-07-13T06:05:28;22.4;;;20.5;;
15498;SDS011;7851;52.260;6.030;2023-07-13T06:06:28;21.4;;;19.4;;
15498;SDS011;7851;52.260;6.030;2023-07-13T06:07:28;23.4;;;21.4;;
15498;SDS011;7851;52.260;6.030;2023-07-13T06:08:28;23.3;;;21.1;;
15498;SDS011;7851;52.260;6.030;2023-07-13T06:09:28;22.3;;;19.9;;
15498;SDS011;7851;52.260;6.030;2023-07-13T06:10:28;21.6;;;19.8;;
15498;SDS011;7851;52.260;6.030;2023-07-13T06:11:28;23;;;21.1;;
15498;SDS011;7851;52.260;6.030;2023-07-13T06:12:28;22.7;;;20.8;;
15498;SDS011;7851;52.260;6.030;2023-07-13T06:13:28;22.7;;;20.9;;
15498;SDS011;7851;52.260;6.030;2023-07-13T06:14:28;23.7;;;21.5;;
15498;SDS011;7851;52.260;6.030;2023-07-13T06:15:28;22;;;20.4;;
15498;SDS011;7851;52.260;6.030;2023-07-13T06:16:28;23.9;;;21.3;;
15498;SDS011;7851;52.260;6.030;2023-07-13T06:17:28;23.9;;;21.7;;
15498;SDS011;7851;52.260;6.030;2023-07-13T06:18:28;22.9;;;21.2;;
15498;SDS011;7851;52.260;6.030;2023-07-13T06:19:28;24;;;21.8;;
15498;SDS011;7851;52.260;6.030;2023-07-13T06:20:28;23.2;;;21.2;;
15498;SDS011;7851;52.260;6.030;2023-07-13T06:21:28;22.4;;;20.4;;